»·PEaware :: SWA575 KBUR-KSFO

SWA575 :: KBUR-KSFO

FLIGHT INFORMATION

Flight Status: Arrived
Operator:
Southwest Airlines
More flights by this operator :: More flights under this callsign
Pilot: Patricio R. (14780)
Aircraft: BOEING 737-200
(B732)
More flights by this aircraft type
Origin: KBUR Bob Hope-Burbank
United States
Destination: KSFO San Francisco Intl
United States
More flights between these airports :: More routes between these airports
Route: VNY3 AVE BSR BSR3
File this flight plan on PilotEdge
Remarks: PBN / A1B2 DOF / 180814 REG / N275SB EET / KZOA0024 OPR / SWA RMK / TCAS SIMBRIEF
Altitude:
(Current/Filed)
32,000ft
Speed:
(Current/Filed)
444kts
Departed: 14-Aug-18 03:14 PM
Arrived: 14-Aug-18 04:11 PM
Distance/Time
Traveled:
283nm/0:57
Distance/Time
To Go:
Arrived

Flight Plot

Page will automatically refresh every two minutes.

Flight plan parsing failed; only flown route is shown


Map Options




Map Legend


Flown Route
Filed Route
Departure Airport
Arrival Airport
Navaid (VOR, NDB)
Fix

Horizontal Profiles

Position Reports

Time Latitude Longitude Heading Altitude Ground
Speed
14-Aug-18 14:54 34.196765 -118.351975 180 785ft 0kts
14-Aug-18 14:55 34.196765 -118.351975 180 785ft 0kts
14-Aug-18 14:56 34.196765 -118.351975 180 785ft 0kts
14-Aug-18 14:57 34.196765 -118.351975 180 785ft 0kts
14-Aug-18 14:58 34.196765 -118.351975 180 785ft 0kts
14-Aug-18 14:59 34.196765 -118.351975 180 785ft 0kts
14-Aug-18 15:00 34.196765 -118.351975 180 785ft 0kts
14-Aug-18 15:01 34.196765 -118.351975 180 785ft 0kts
14-Aug-18 15:02 34.196765 -118.351975 180 785ft 0kts
14-Aug-18 15:03 34.196765 -118.351975 180 785ft 0kts
14-Aug-18 15:04 34.196817 -118.351967 188 785ft 2kts
14-Aug-18 15:05 34.197190 -118.351639 271 785ft 0kts
14-Aug-18 15:06 34.197190 -118.351640 271 785ft 0kts
14-Aug-18 15:07 34.197190 -118.351677 270 785ft 1kts
14-Aug-18 15:08 34.197186 -118.352006 269 785ft 4kts
14-Aug-18 15:09 34.198101 -118.355181 343 785ft 14kts
14-Aug-18 15:10 34.202311 -118.356352 347 785ft 15kts
14-Aug-18 15:11 34.206157 -118.357398 346 785ft 13kts
14-Aug-18 15:12 34.210358 -118.358578 347 785ft 16kts
14-Aug-18 15:13 34.211568 -118.359072 319 785ft 0kts
14-Aug-18 15:14 34.211958 -118.360364 175 785ft 10kts
14-Aug-18 15:15 34.179468 -118.354830 202 1785ft 178kts
14-Aug-18 15:16 34.141880 -118.400187 225 4058ft 217kts
14-Aug-18 15:17 34.148614 -118.463219 341 5775ft 240kts
14-Aug-18 15:18 34.215620 -118.476498 352 8186ft 261kts
14-Aug-18 15:19 34.290764 -118.490053 352 10402ft 284kts
14-Aug-18 15:20 34.361544 -118.526445 328 12101ft 311kts
14-Aug-18 15:21 34.436137 -118.582195 328 14251ft 321kts
14-Aug-18 15:22 34.512615 -118.639743 327 16225ft 329kts
14-Aug-18 15:23 34.587054 -118.696824 326 17912ft 337kts
14-Aug-18 15:24 34.667059 -118.757758 327 19510ft 344kts
14-Aug-18 15:25 34.748858 -118.819892 327 20967ft 352kts
14-Aug-18 15:26 34.832412 -118.883874 324 22256ft 359kts
14-Aug-18 15:27 34.915349 -118.953089 324 23452ft 366kts
14-Aug-18 15:28 35.000071 -119.023183 324 24540ft 372kts
14-Aug-18 15:29 35.085618 -119.093957 324 25516ft 378kts
14-Aug-18 15:30 35.172219 -119.165145 324 26360ft 383kts
14-Aug-18 15:31 35.260126 -119.237975 324 27164ft 387kts
14-Aug-18 15:32 35.348866 -119.312103 323 27929ft 389kts
14-Aug-18 15:33 35.439765 -119.387856 324 27929ft 401kts
14-Aug-18 15:34 35.532782 -119.465773 324 27919ft 409kts
14-Aug-18 15:35 35.593956 -119.573608 268 27937ft 400kts
14-Aug-18 15:36 35.590688 -119.709768 283 27918ft 408kts
14-Aug-18 15:37 35.621770 -119.844613 281 27920ft 412kts
14-Aug-18 15:38 35.646825 -119.982864 286 27931ft 416kts
14-Aug-18 15:39 35.690809 -120.114483 290 27973ft 419kts
14-Aug-18 15:40 35.734759 -120.247651 290 27973ft 422kts
14-Aug-18 15:41 35.781106 -120.381196 291 27973ft 424kts
14-Aug-18 15:42 35.825338 -120.515774 291 27973ft 426kts
14-Aug-18 15:43 35.869244 -120.651761 290 27972ft 428kts
14-Aug-18 15:44 35.912267 -120.788683 290 27974ft 429kts
14-Aug-18 15:45 35.955895 -120.925868 290 27973ft 430kts
14-Aug-18 15:46 35.999493 -121.063122 290 27973ft 431kts
14-Aug-18 15:47 36.042939 -121.200668 290 27973ft 431kts
14-Aug-18 15:48 36.086266 -121.338887 290 28053ft 430kts
14-Aug-18 15:49 36.128364 -121.470287 291 28060ft 430kts
14-Aug-18 15:50 36.171489 -121.607497 290 28025ft 432kts
14-Aug-18 15:51 36.250365 -121.713737 329 28033ft 435kts
14-Aug-18 15:52 36.352766 -121.793716 325 28026ft 434kts
14-Aug-18 15:53 36.446796 -121.874054 324 26426ft 407kts
14-Aug-18 15:54 36.537781 -121.953353 324 24256ft 396kts
14-Aug-18 15:55 36.626591 -122.031225 324 22022ft 384kts
14-Aug-18 15:56 36.722017 -122.069341 16 19481ft 374kts
14-Aug-18 15:57 36.819053 -122.030060 18 17225ft 362kts
14-Aug-18 15:58 36.916880 -122.019448 355 15431ft 352kts
14-Aug-18 15:59 37.011959 -122.036157 350 13662ft 341kts
14-Aug-18 16:00 37.100254 -122.057536 348 12144ft 309kts
14-Aug-18 16:01 37.182129 -122.078572 348 10215ft 302kts
14-Aug-18 16:02 37.263239 -122.096615 7 8799ft 295kts
14-Aug-18 16:03 37.341289 -122.071300 14 7168ft 286kts
14-Aug-18 16:04 37.414142 -122.044969 14 5621ft 252kts
14-Aug-18 16:05 37.474877 -122.067517 323 4170ft 233kts
14-Aug-18 16:06 37.512620 -122.124491 298 4002ft 205kts
14-Aug-18 16:07 37.539892 -122.187931 297 3029ft 201kts
14-Aug-18 16:08 37.563368 -122.243438 296 2086ft 167kts
14-Aug-18 16:09 37.583757 -122.291814 295 1233ft 138kts
14-Aug-18 16:10 37.600788 -122.332276 294 507ft 125kts
14-Aug-18 16:11 37.616307 -122.369402 295 22ft 90kts
14-Aug-18 16:12 37.618946 -122.378163 268 22ft 0kts
14-Aug-18 16:13 37.618584 -122.379368 217 22ft 10kts
14-Aug-18 16:14 37.614324 -122.381160 207 22ft 21kts
14-Aug-18 16:15 37.611491 -122.384652 312 22ft 6kts
14-Aug-18 16:16 37.612624 -122.384665 2 22ft 0kts
14-Aug-18 16:17 37.612671 -122.384659 4 22ft 0kts

Navigation Log

Ident Type
Flight plan parsing failed, navigation log unavailable